Time;durP1;ratioP1;P1;durP2;ratioP2;P2;SDS_P1;SDS_P2;PMS_P1;PMS_P2;Temp;Humidity;BMP_temperature;BMP_pressure;BME280_temperature;BME280_humidity;BME280_pressure;Samples;Min_cycle;Max_cycle;Signal;HPM_P1;HPM_P2
2022/11/03 00:01:49;;;;;;;14.05;2.30;;;12.20;99.90;;;;;;5066772;28;25107;-72
2022/11/03 00:04:17;;;;;;;25.90;3.63;;;12.20;99.90;;;;;;5065064;28;25106;-73
2022/11/03 00:06:45;;;;;;;12.48;2.58;;;12.20;99.90;;;;;;5066232;28;25144;-72
2022/11/03 00:09:12;;;;;;;6.10;1.90;;;12.20;99.90;;;;;;5068988;28;25066;-73
2022/11/03 00:11:40;;;;;;;15.57;2.65;;;12.20;99.90;;;;;;5064888;28;25077;-73
2022/11/03 00:14:08;;;;;;;15.23;2.25;;;12.20;99.90;;;;;;5074570;28;25132;-73
2022/11/03 00:16:34;;;;;;;10.70;2.47;;;12.20;99.90;;;;;;5050316;28;25104;-73
2022/11/03 00:19:00;;;;;;;7.72;1.83;;;12.20;99.90;;;;;;5070228;28;25045;-73
2022/11/03 00:21:26;;;;;;;16.35;3.03;;;12.20;99.90;;;;;;5066388;28;25080;-73
2022/11/03 00:23:52;;;;;;;6.53;2.08;;;12.20;99.90;;;;;;5068075;28;25151;-73
2022/11/03 00:26:26;;;;;;;10.40;1.90;;;12.20;99.90;;;;;;5058350;28;25066;-72
2022/11/03 00:28:59;;;;;;;16.08;2.42;;;12.20;99.90;;;;;;5060107;28;25066;-72
2022/11/03 00:31:30;;;;;;;10.65;2.33;;;12.20;99.90;;;;;;5070175;28;25068;-73
2022/11/03 00:33:56;;;;;;;6.10;1.85;;;12.20;99.90;;;;;;5063619;28;25066;-73
2022/11/03 00:36:40;;;;;;;8.65;2.08;;;12.20;99.90;;;;;;5080153;28;25079;-72
2022/11/03 00:39:07;;;;;;;9.10;1.90;;;12.30;99.90;;;;;;5068696;28;25067;-71
2022/11/03 00:41:33;;;;;;;8.45;2.00;;;12.30;99.90;;;;;;5058625;28;25067;-73
2022/11/03 00:43:58;;;;;;;11.13;2.15;;;12.30;99.90;;;;;;5050760;28;25093;-72
2022/11/03 00:46:25;;;;;;;11.82;1.83;;;12.30;99.90;;;;;;5073470;28;25059;-73
2022/11/03 00:48:51;;;;;;;19.60;1.98;;;12.30;99.90;;;;;;5060005;28;25105;-74
2022/11/03 00:51:23;;;;;;;16.88;2.28;;;12.30;99.90;;;;;;5043049;28;25081;-72
2022/11/03 00:53:54;;;;;;;8.00;1.85;;;12.30;99.90;;;;;;5068119;28;25137;-73
2022/11/03 00:56:25;;;;;;;11.50;2.97;;;12.30;99.90;;;;;;5067415;28;25080;-73
2022/11/03 00:58:53;;;;;;;20.38;4.65;;;12.30;99.90;;;;;;5048851;28;25048;-73
2022/11/03 01:01:18;;;;;;;11.23;2.15;;;12.30;99.90;;;;;;5047154;28;25114;-73
2022/11/03 01:06:48;;;;;;;11.43;2.47;;;12.30;99.90;;;;;;5065828;28;25098;-74
2022/11/03 01:09:20;;;;;;;9.45;2.83;;;12.30;99.90;;;;;;5059978;28;25102;-74
2022/11/03 01:11:56;;;;;;;12.63;1.73;;;12.30;99.90;;;;;;5044772;28;25047;-73
2022/11/03 01:14:22;;;;;;;8.77;2.92;;;12.40;99.90;;;;;;5057608;28;25101;-73
2022/11/03 01:16:48;;;;;;;17.35;2.42;;;12.40;99.90;;;;;;5062388;28;25055;-72
2022/11/03 01:19:14;;;;;;;11.10;2.28;;;12.40;99.90;;;;;;5061203;28;25162;-72
2022/11/03 01:21:40;;;;;;;10.98;1.92;;;12.40;99.90;;;;;;5064131;28;25102;-73
2022/11/03 01:24:05;;;;;;;10.02;2.15;;;12.40;99.90;;;;;;5064794;28;25167;-73
2022/11/03 01:26:31;;;;;;;10.27;2.33;;;12.40;99.90;;;;;;5061946;28;25090;-73
2022/11/03 01:28:58;;;;;;;7.03;1.73;;;12.40;99.90;;;;;;5056405;28;25094;-73
2022/11/03 01:31:25;;;;;;;9.43;2.83;;;12.40;99.90;;;;;;5077935;28;25069;-72
2022/11/03 01:33:53;;;;;;;13.27;3.67;;;12.30;99.90;;;;;;5060512;28;25101;-74
2022/11/03 01:36:19;;;;;;;9.38;2.78;;;12.30;99.90;;;;;;5061125;28;25076;-72
2022/11/03 01:38:45;;;;;;;6.43;1.75;;;12.30;99.90;;;;;;5063313;28;25070;-73
2022/11/03 01:41:22;;;;;;;8.40;2.08;;;12.30;99.90;;;;;;5063368;28;25141;-73
2022/11/03 01:44:10;;;;;;;7.22;2.03;;;12.30;99.90;;;;;;5063097;28;25170;-73
2022/11/03 01:46:56;;;;;;;12.07;2.42;;;12.30;99.90;;;;;;5073713;28;25105;-72
2022/11/03 01:49:43;;;;;;;10.57;1.85;;;12.30;99.90;;;;;;5071033;28;25062;-73
2022/11/03 01:52:24;;;;;;;8.98;2.00;;;12.40;99.90;;;;;;5064010;28;25074;-72
2022/11/03 01:55:13;;;;;;;8.70;2.33;;;12.40;99.90;;;;;;5045843;28;25046;-73
2022/11/03 01:57:48;;;;;;;9.30;2.30;;;12.30;99.90;;;;;;5062150;28;25057;-74
2022/11/03 02:00:14;;;;;;;9.95;2.08;;;12.30;99.90;;;;;;5063344;28;25052;-72
2022/11/03 02:02:41;;;;;;;6.65;1.80;;;12.30;99.90;;;;;;5065676;28;25073;-73
2022/11/03 02:05:09;;;;;;;7.85;1.98;;;12.30;99.90;;;;;;5073793;28;25066;-73
2022/11/03 02:07:45;;;;;;;14.30;2.38;;;12.30;99.90;;;;;;5068537;28;25154;-74
2022/11/03 02:10:11;;;;;;;8.63;1.60;;;12.40;99.90;;;;;;5066208;28;25095;-74
2022/11/03 02:12:38;;;;;;;10.85;2.03;;;12.30;99.90;;;;;;5054736;28;25077;-73
2022/11/03 02:15:14;;;;;;;6.25;1.90;;;12.20;99.90;;;;;;5074293;28;25166;-73
2022/11/03 02:17:42;;;;;;;8.68;2.30;;;12.30;99.90;;;;;;5072926;28;25067;-72
2022/11/03 02:20:23;;;;;;;13.32;2.08;;;12.30;99.90;;;;;;5043930;28;25062;-73
2022/11/03 02:23:03;;;;;;;13.68;2.20;;;12.30;99.90;;;;;;5070332;28;25068;-74
2022/11/03 02:25:50;;;;;;;14.57;1.48;;;12.30;99.90;;;;;;5060918;28;25136;-73
2022/11/03 02:28:22;;;;;;;17.80;2.63;;;12.40;99.90;;;;;;5062746;28;25082;-73
2022/11/03 02:31:09;;;;;;;9.57;2.38;;;12.40;99.90;;;;;;5076141;28;25145;-74
2022/11/03 02:33:44;;;;;;;15.82;2.15;;;12.40;99.90;;;;;;5060624;28;25066;-73
2022/11/03 02:36:39;;;;;;;16.45;3.72;;;12.40;99.90;;;;;;5055651;28;25099;-74
2022/11/03 02:39:07;;;;;;;14.43;2.38;;;12.40;99.90;;;;;;5049173;28;25071;-73
2022/11/03 02:41:35;;;;;;;18.92;3.63;;;12.40;99.90;;;;;;5065855;28;25070;-73
2022/11/03 02:44:03;;;;;;;12.65;2.45;;;12.30;99.90;;;;;;5054477;28;25120;-73
2022/11/03 02:46:30;;;;;;;15.93;3.67;;;12.30;99.90;;;;;;5047906;28;25060;-73
2022/11/03 02:48:56;;;;;;;7.80;2.50;;;12.30;99.90;;;;;;5054495;28;25060;-72
2022/11/03 02:51:23;;;;;;;6.82;1.63;;;12.20;99.90;;;;;;5057236;28;25144;-73
2022/11/03 02:54:03;;;;;;;6.55;1.95;;;12.30;99.90;;;;;;5054409;28;25076;-73
2022/11/03 02:56:33;;;;;;;19.33;2.53;;;12.20;99.90;;;;;;5051547;28;25065;-72
2022/11/03 02:59:05;;;;;;;10.02;2.35;;;12.30;99.90;;;;;;5051582;28;25058;-73
2022/11/03 03:01:45;;;;;;;9.73;2.05;;;12.30;99.90;;;;;;5037784;28;25079;-73
2022/11/03 03:04:18;;;;;;;7.82;2.47;;;12.30;99.90;;;;;;5059345;28;25098;-74
2022/11/03 03:06:58;;;;;;;11.55;2.08;;;12.30;99.90;;;;;;5065883;28;25112;-73
2022/11/03 03:09:31;;;;;;;10.75;2.80;;;12.40;99.90;;;;;;5063395;28;25085;-74
2022/11/03 03:11:59;;;;;;;6.38;2.10;;;12.40;99.90;;;;;;5060560;28;25060;-73
2022/11/03 03:14:32;;;;;;;7.78;1.92;;;12.50;99.90;;;;;;5068537;28;25105;-73
2022/11/03 03:17:18;;;;;;;10.98;2.38;;;12.40;99.90;;;;;;5058751;28;25074;-74
2022/11/03 03:19:43;;;;;;;9.82;2.20;;;12.50;99.90;;;;;;5063188;28;25073;-76
2022/11/03 03:22:37;;;;;;;13.50;2.28;;;12.50;99.90;;;;;;5066127;28;25123;-76
2022/11/03 03:25:08;;;;;;;7.70;2.15;;;12.50;99.90;;;;;;5057594;28;25095;-77
2022/11/03 03:27:37;;;;;;;9.85;2.63;;;12.50;99.90;;;;;;5069151;28;25078;-74
2022/11/03 03:30:05;;;;;;;10.10;2.22;;;12.50;99.90;;;;;;5078287;28;25076;-73
2022/11/03 03:32:36;;;;;;;10.13;2.10;;;12.50;99.90;;;;;;5070812;28;25096;-75
2022/11/03 03:35:06;;;;;;;12.52;2.92;;;12.50;99.90;;;;;;5072660;28;25105;-73
2022/11/03 03:37:36;;;;;;;5.38;1.90;;;12.50;99.90;;;;;;5063171;28;25157;-73
2022/11/03 03:40:06;;;;;;;4.88;1.80;;;12.50;99.90;;;;;;5071416;28;25067;-73
2022/11/03 03:42:35;;;;;;;12.93;2.40;;;12.50;99.90;;;;;;5048669;28;25070;-72
2022/11/03 03:45:02;;;;;;;9.38;1.75;;;12.50;99.90;;;;;;5066319;28;25155;-72
2022/11/03 03:47:30;;;;;;;8.70;2.10;;;12.60;99.90;;;;;;5065511;28;25043;-75
2022/11/03 03:49:56;;;;;;;11.93;2.13;;;12.60;99.90;;;;;;5063728;28;25149;-73
2022/11/03 03:52:23;;;;;;;19.60;2.42;;;12.60;99.90;;;;;;5047568;28;25082;-76
2022/11/03 03:54:49;;;;;;;8.95;2.75;;;12.60;99.90;;;;;;5066069;28;25168;-74
2022/11/03 03:57:20;;;;;;;12.15;2.05;;;12.60;99.90;;;;;;5073017;28;25190;-75
2022/11/03 03:59:46;;;;;;;7.65;2.35;;;12.60;99.90;;;;;;5070872;28;25093;-75
2022/11/03 04:02:12;;;;;;;11.18;2.10;;;12.60;99.90;;;;;;5073646;28;25079;-74
2022/11/03 04:04:38;;;;;;;13.13;2.67;;;12.60;99.90;;;;;;5053878;28;25090;-74
2022/11/03 04:09:49;;;;;;;10.55;2.25;;;12.60;99.90;;;;;;5069738;28;25080;-73
2022/11/03 04:23:14;;;;;;;12.10;2.85;;;12.60;99.90;;;;;;5072358;28;25151;-74
2022/11/03 04:25:46;;;;;;;9.70;1.85;;;12.60;99.90;;;;;;5050265;28;25078;-73
2022/11/03 04:28:14;;;;;;;9.07;2.60;;;12.60;99.90;;;;;;5065932;28;25081;-75
2022/11/03 04:30:40;;;;;;;4.78;2.10;;;12.70;99.90;;;;;;5068349;28;25061;-73
2022/11/03 04:33:15;;;;;;;9.82;3.20;;;12.70;99.90;;;;;;5068520;28;25126;-74
2022/11/03 04:35:43;;;;;;;7.47;2.60;;;12.70;99.90;;;;;;5051590;28;25090;-74
2022/11/03 04:38:20;;;;;;;12.13;2.15;;;12.70;99.90;;;;;;5068692;28;25161;-74
2022/11/03 04:40:53;;;;;;;7.22;2.50;;;12.70;99.90;;;;;;5069481;28;25092;-75
2022/11/03 04:43:20;;;;;;;9.77;2.33;;;12.80;99.90;;;;;;5060920;28;25072;-76
2022/11/03 04:45:48;;;;;;;13.10;2.15;;;12.80;99.90;;;;;;5038904;28;25083;-74
2022/11/03 04:48:15;;;;;;;9.43;2.22;;;12.80;99.90;;;;;;5071400;28;25155;-72
2022/11/03 04:50:41;;;;;;;7.20;2.10;;;12.80;99.90;;;;;;5072598;28;25114;-74
2022/11/03 04:53:15;;;;;;;13.80;2.83;;;12.80;99.90;;;;;;5061971;28;25080;-75
2022/11/03 04:55:42;;;;;;;5.90;1.58;;;12.90;99.90;;;;;;5050881;28;25069;-74
2022/11/03 04:58:20;;;;;;;5.75;1.63;;;12.90;99.90;;;;;;5066747;28;25130;-75
2022/11/03 05:00:55;;;;;;;6.85;2.03;;;13.00;99.90;;;;;;5074609;28;25076;-76
2022/11/03 05:03:24;;;;;;;10.93;1.85;;;13.00;99.90;;;;;;5059960;28;25074;-75
2022/11/03 05:05:50;;;;;;;6.35;1.77;;;13.00;99.90;;;;;;5050711;28;25427;-75
2022/11/03 05:08:19;;;;;;;6.10;1.65;;;13.00;99.90;;;;;;5077990;28;25075;-73
2022/11/03 05:10:46;;;;;;;7.72;2.00;;;13.00;99.90;;;;;;5071447;28;25084;-72
2022/11/03 05:13:24;;;;;;;9.02;2.42;;;13.00;99.90;;;;;;5071739;28;25154;-73
2022/11/03 05:15:52;;;;;;;11.35;2.58;;;13.00;99.90;;;;;;5071644;28;25057;-73
2022/11/03 05:18:30;;;;;;;9.35;2.17;;;13.10;99.90;;;;;;5062512;28;25093;-73
2022/11/03 05:21:02;;;;;;;8.77;1.90;;;13.10;99.90;;;;;;5062992;28;25061;-73
2022/11/03 05:23:35;;;;;;;6.03;2.25;;;13.10;99.90;;;;;;5071846;28;25054;-73
2022/11/03 05:26:02;;;;;;;13.48;2.45;;;13.20;99.90;;;;;;5066314;28;25071;-73
2022/11/03 05:28:30;;;;;;;7.22;1.85;;;13.10;99.90;;;;;;5048637;28;25103;-73
2022/11/03 05:30:56;;;;;;;8.15;1.85;;;13.10;99.90;;;;;;5066108;28;25443;-74
2022/11/03 05:33:31;;;;;;;5.20;1.88;;;13.10;99.90;;;;;;5050397;28;25110;-74
2022/11/03 05:36:04;;;;;;;7.97;2.05;;;13.10;99.90;;;;;;5067408;28;25135;-72
2022/11/03 05:38:32;;;;;;;6.10;1.50;;;13.10;99.90;;;;;;5067290;28;25062;-76
2022/11/03 05:40:58;;;;;;;9.00;2.08;;;13.10;99.90;;;;;;5063447;28;25134;-74
2022/11/03 05:43:25;;;;;;;14.55;3.03;;;13.10;99.90;;;;;;5060328;28;25074;-75
2022/11/03 05:45:54;;;;;;;8.75;2.25;;;13.10;99.90;;;;;;5065610;28;25087;-72
2022/11/03 05:48:33;;;;;;;10.32;2.08;;;13.10;99.90;;;;;;5067620;28;25125;-76
2022/11/03 05:51:01;;;;;;;7.95;2.28;;;13.10;99.90;;;;;;5067922;28;25082;-77
2022/11/03 05:53:37;;;;;;;8.05;2.00;;;13.10;99.90;;;;;;5056794;28;25098;-78
2022/11/03 05:56:04;;;;;;;13.25;2.30;;;13.20;99.90;;;;;;5062777;28;25107;-75
2022/11/03 05:58:38;;;;;;;11.32;2.22;;;13.20;99.90;;;;;;5043609;28;25092;-77
2022/11/03 06:01:27;;;;;;;7.75;1.65;;;13.10;99.90;;;;;;5066440;28;25107;-76
2022/11/03 06:03:53;;;;;;;11.35;2.67;;;13.20;99.90;;;;;;5046136;28;25127;-76
2022/11/03 06:06:31;;;;;;;12.57;2.10;;;13.20;99.90;;;;;;5060465;28;25055;-76
2022/11/03 06:08:58;;;;;;;14.00;2.20;;;13.20;99.90;;;;;;5061523;28;25105;-76
2022/11/03 06:11:32;;;;;;;11.48;1.98;;;13.10;99.90;;;;;;5061459;28;25078;-74
2022/11/03 06:13:58;;;;;;;10.45;3.03;;;13.10;99.90;;;;;;5061379;28;25064;-78
2022/11/03 06:16:40;;;;;;;6.38;2.08;;;13.10;99.90;;;;;;5061537;28;25151;-78
2022/11/03 06:19:24;;;;;;;10.77;2.60;;;13.20;99.90;;;;;;5069395;28;25112;-76
2022/11/03 06:21:51;;;;;;;14.15;2.35;;;13.20;99.90;;;;;;5078258;28;25059;-75
2022/11/03 06:24:20;;;;;;;9.23;2.30;;;13.20;99.90;;;;;;5048426;28;25055;-76
2022/11/03 06:26:48;;;;;;;14.02;2.58;;;13.20;99.90;;;;;;5051840;28;25126;-76
2022/11/03 06:29:17;;;;;;;8.05;2.60;;;13.20;99.90;;;;;;5058683;28;25071;-73
2022/11/03 06:31:45;;;;;;;7.55;1.73;;;13.20;99.90;;;;;;5070864;28;25095;-74
2022/11/03 06:34:28;;;;;;;4.18;1.92;;;13.20;99.90;;;;;;5062858;28;25059;-78
2022/11/03 06:36:56;;;;;;;8.02;2.20;;;13.20;99.90;;;;;;5059590;28;25074;-77
2022/11/03 06:39:23;;;;;;;7.60;2.10;;;13.20;99.90;;;;;;5064016;28;25072;-75
2022/11/03 06:41:50;;;;;;;11.73;3.08;;;13.20;99.90;;;;;;5046619;28;25065;-78
2022/11/03 06:44:27;;;;;;;6.85;2.22;;;13.30;99.90;;;;;;5071129;28;25063;-78
2022/11/03 06:46:55;;;;;;;7.40;2.38;;;13.30;99.90;;;;;;5069934;28;25101;-76
2022/11/03 06:49:29;;;;;;;12.30;2.50;;;13.30;99.90;;;;;;5060203;28;25143;-74
2022/11/03 06:52:05;;;;;;;12.82;2.42;;;13.40;99.90;;;;;;5062344;28;25064;-76
2022/11/03 06:54:30;;;;;;;11.48;2.25;;;13.40;99.90;;;;;;5064573;28;25118;-73
2022/11/03 06:56:56;;;;;;;13.75;2.78;;;13.40;99.90;;;;;;5063439;28;25080;-77
2022/11/03 06:59:23;;;;;;;10.07;2.95;;;13.40;99.90;;;;;;5061795;28;25087;-77
2022/11/03 07:01:54;;;;;;;13.82;2.30;;;13.40;99.90;;;;;;5073994;28;25048;-75
2022/11/03 07:04:21;;;;;;;9.23;2.38;;;13.40;99.90;;;;;;5071720;28;25074;-74
2022/11/03 07:06:47;;;;;;;11.32;2.80;;;13.40;99.90;;;;;;5069264;28;25081;-75
2022/11/03 07:09:21;;;;;;;14.30;2.30;;;13.40;99.90;;;;;;5081522;28;25051;-76
2022/11/03 07:11:52;;;;;;;18.38;2.95;;;13.50;99.90;;;;;;5075209;28;25119;-75
2022/11/03 07:14:30;;;;;;;7.63;2.15;;;13.50;99.90;;;;;;5071366;28;25076;-74
2022/11/03 07:17:02;;;;;;;7.75;1.80;;;13.50;99.90;;;;;;5071527;28;25102;-74
2022/11/03 07:19:33;;;;;;;9.65;2.25;;;13.50;99.90;;;;;;5074544;28;25105;-77
2022/11/03 07:22:01;;;;;;;15.93;2.75;;;13.50;99.90;;;;;;5079956;28;25099;-73
2022/11/03 07:24:38;;;;;;;17.15;2.35;;;13.50;99.90;;;;;;5077587;28;25168;-79
2022/11/03 07:27:20;;;;;;;11.98;2.30;;;13.50;99.90;;;;;;5081906;28;25072;-76
2022/11/03 07:29:48;;;;;;;9.73;2.38;;;13.60;99.90;;;;;;5073518;28;25107;-76
2022/11/03 07:32:23;;;;;;;11.45;2.63;;;13.60;99.90;;;;;;5093261;28;25093;-82
2022/11/03 07:34:52;;;;;;;7.47;2.47;;;13.60;99.90;;;;;;5092318;28;25057;-75
2022/11/03 07:37:21;;;;;;;11.60;2.30;;;13.60;99.90;;;;;;5076053;28;25074;-74
2022/11/03 07:39:49;;;;;;;8.35;2.58;;;13.60;99.90;;;;;;5077903;28;25158;-76
2022/11/03 07:42:21;;;;;;;12.30;2.13;;;13.70;99.90;;;;;;5070672;28;25110;-77
2022/11/03 07:45:01;;;;;;;6.18;2.63;;;13.70;99.90;;;;;;5081112;28;25078;-75
2022/11/03 07:47:27;;;;;;;6.18;2.00;;;13.70;99.90;;;;;;5073118;28;25059;-77
2022/11/03 07:49:56;;;;;;;8.98;2.10;;;13.80;99.90;;;;;;5073261;28;25065;-76
2022/11/03 07:52:24;;;;;;;11.25;2.60;;;13.80;99.90;;;;;;5079398;28;25082;-75
2022/11/03 07:54:55;;;;;;;14.25;2.92;;;13.80;99.90;;;;;;5080415;28;25066;-76
2022/11/03 07:57:25;;;;;;;8.77;2.50;;;13.80;99.90;;;;;;5077127;28;25087;-75
2022/11/03 07:59:57;;;;;;;8.13;2.08;;;13.80;99.90;;;;;;5074227;28;25087;-74
2022/11/03 08:02:34;;;;;;;10.82;2.08;;;13.80;99.90;;;;;;5049748;28;25075;-73
2022/11/03 08:05:00;;;;;;;5.97;2.28;;;13.90;99.90;;;;;;5070066;28;25095;-74
2022/11/03 08:07:30;;;;;;;12.18;2.50;;;13.90;99.90;;;;;;5081535;28;25089;-74
2022/11/03 08:09:56;;;;;;;14.52;3.00;;;13.90;99.90;;;;;;5054392;28;25054;-78
2022/11/03 08:12:21;;;;;;;12.18;2.80;;;13.90;99.90;;;;;;5074772;28;25069;-74
2022/11/03 08:14:47;;;;;;;19.38;4.43;;;13.90;99.90;;;;;;5058162;28;25140;-74
2022/11/03 08:17:16;;;;;;;15.07;2.55;;;14.00;99.90;;;;;;5056455;28;25088;-76
2022/11/03 08:19:41;;;;;;;6.75;2.45;;;14.00;99.90;;;;;;5053864;28;25085;-75
2022/11/03 08:22:07;;;;;;;12.00;2.55;;;14.00;99.90;;;;;;5072760;28;25072;-79
2022/11/03 08:24:33;;;;;;;14.57;3.58;;;14.00;99.90;;;;;;5061492;28;25109;-80
2022/11/03 08:26:59;;;;;;;7.85;2.28;;;14.00;99.90;;;;;;5065053;28;25081;-82
2022/11/03 08:29:26;;;;;;;5.82;2.22;;;14.00;99.90;;;;;;5064512;28;25074;-76
2022/11/03 08:31:55;;;;;;;8.52;2.42;;;13.90;99.90;;;;;;5056703;28;25065;-80
2022/11/03 08:34:21;;;;;;;7.65;2.42;;;13.90;99.90;;;;;;5061307;28;25100;-82
2022/11/03 08:36:47;;;;;;;12.32;2.60;;;14.00;99.90;;;;;;5063103;28;25174;-77
2022/11/03 08:39:16;;;;;;;10.95;2.05;;;14.00;99.90;;;;;;5057104;28;25060;-81
2022/11/03 08:41:46;;;;;;;8.05;2.20;;;14.00;99.90;;;;;;5047691;28;25084;-78
2022/11/03 08:44:14;;;;;;;8.98;2.13;;;14.00;99.90;;;;;;5055020;28;25070;-75
2022/11/03 08:46:39;;;;;;;11.77;2.40;;;14.10;99.90;;;;;;5055438;28;25083;-81
2022/11/03 08:49:06;;;;;;;10.57;2.80;;;14.20;99.90;;;;;;5059583;28;25107;-83
2022/11/03 08:51:35;;;;;;;9.77;2.60;;;14.20;99.90;;;;;;5046192;28;25056;-78
2022/11/03 08:54:02;;;;;;;8.23;2.72;;;14.20;99.90;;;;;;5063283;28;25100;-72
2022/11/03 08:56:28;;;;;;;10.05;2.53;;;14.20;99.90;;;;;;5041596;28;25072;-71
2022/11/03 08:58:53;;;;;;;10.15;2.35;;;14.20;99.90;;;;;;5058424;28;25047;-72
2022/11/03 09:01:19;;;;;;;9.48;1.60;;;14.20;99.90;;;;;;5060533;28;25092;-71
2022/11/03 09:03:45;;;;;;;11.65;2.75;;;14.20;99.90;;;;;;5041984;28;25136;-72
2022/11/03 09:06:10;;;;;;;9.88;2.60;;;14.20;99.90;;;;;;5058399;28;25074;-72
2022/11/03 09:08:37;;;;;;;12.63;2.40;;;14.30;99.90;;;;;;5061739;28;25143;-73
2022/11/03 09:11:02;;;;;;;4.47;2.67;;;14.30;99.90;;;;;;5046491;28;25080;-72
2022/11/03 09:13:28;;;;;;;11.75;2.28;;;14.20;99.90;;;;;;5059701;28;25069;-72
2022/11/03 09:15:54;;;;;;;16.25;2.22;;;14.20;99.90;;;;;;5052331;28;25064;-72
2022/11/03 09:18:19;;;;;;;10.45;2.55;;;14.20;99.90;;;;;;5065983;28;25111;-72
2022/11/03 09:20:45;;;;;;;17.88;3.78;;;14.20;99.90;;;;;;5060739;28;25114;-72
2022/11/03 09:23:10;;;;;;;13.48;2.00;;;14.20;99.90;;;;;;5065087;28;25082;-72
2022/11/03 09:25:37;;;;;;;11.23;2.40;;;14.20;99.90;;;;;;5070248;28;25075;-71
2022/11/03 09:28:03;;;;;;;9.93;2.03;;;14.10;99.90;;;;;;5082145;28;25061;-71
2022/11/03 09:30:28;;;;;;;15.38;2.15;;;14.20;99.90;;;;;;5080192;28;25065;-71
2022/11/03 09:32:54;;;;;;;8.55;2.22;;;14.20;99.90;;;;;;5087054;28;25065;-70
2022/11/03 09:35:20;;;;;;;9.35;2.25;;;14.20;99.90;;;;;;5087629;28;25062;-71
2022/11/03 09:37:45;;;;;;;10.00;2.00;;;14.20;99.90;;;;;;5060243;28;25061;-71
2022/11/03 09:40:14;;;;;;;8.00;2.47;;;14.30;99.90;;;;;;5086799;28;25070;-71
2022/11/03 09:42:41;;;;;;;7.65;1.73;;;14.30;99.90;;;;;;5092382;28;25069;-70
2022/11/03 09:45:08;;;;;;;6.53;1.92;;;14.30;99.90;;;;;;5072636;28;25071;-71
2022/11/03 09:47:39;;;;;;;8.52;1.75;;;14.30;99.90;;;;;;5076918;28;25106;-71
2022/11/03 09:50:09;;;;;;;4.57;1.80;;;14.20;99.90;;;;;;5078584;28;25077;-72
2022/11/03 09:52:36;;;;;;;12.93;2.08;;;14.10;99.90;;;;;;5076910;28;25084;-71
2022/11/03 09:55:02;;;;;;;9.20;2.00;;;14.20;99.90;;;;;;5099429;28;25046;-72
2022/11/03 09:57:28;;;;;;;11.35;2.40;;;14.20;99.90;;;;;;5092649;28;25051;-71
2022/11/03 09:59:54;;;;;;;7.65;2.13;;;14.20;99.90;;;;;;5075312;28;25103;-71
2022/11/03 10:02:31;;;;;;;9.20;2.92;;;14.10;99.90;;;;;;5078484;28;25067;-71
2022/11/03 10:04:59;;;;;;;6.63;1.98;;;14.20;99.90;;;;;;5071144;28;25060;-71
2022/11/03 10:07:26;;;;;;;11.00;2.60;;;14.20;99.90;;;;;;5063421;28;25126;-71
2022/11/03 10:09:55;;;;;;;9.77;1.58;;;14.30;99.90;;;;;;5063315;28;25094;-72
2022/11/03 10:12:24;;;;;;;8.63;2.60;;;14.30;99.90;;;;;;5070761;28;25110;-71
2022/11/03 10:14:50;;;;;;;7.75;1.90;;;14.30;99.90;;;;;;5057599;28;25143;-72
2022/11/03 10:17:18;;;;;;;7.57;1.98;;;14.30;99.90;;;;;;5056354;28;25142;-73
2022/11/03 10:19:48;;;;;;;7.45;2.28;;;14.30;99.90;;;;;;5067298;28;25050;-74
2022/11/03 10:22:14;;;;;;;10.90;2.17;;;14.30;99.90;;;;;;5060876;28;25072;-70
2022/11/03 10:24:40;;;;;;;14.30;1.95;;;14.30;99.90;;;;;;5074918;28;25045;-71
2022/11/03 10:27:24;;;;;;;3.80;1.90;;;14.30;99.90;;;;;;5076061;28;25068;-70
2022/11/03 10:30:10;;;;;;;9.25;2.00;;;14.30;99.90;;;;;;5052957;28;25093;-72
2022/11/03 10:32:37;;;;;;;8.75;1.95;;;14.40;99.90;;;;;;5062175;28;25058;-70
2022/11/03 10:35:32;;;;;;;6.18;1.50;;;14.30;99.90;;;;;;5068404;28;25095;-72
2022/11/03 10:38:26;;;;;;;9.05;1.83;;;14.40;99.90;;;;;;5071533;28;25045;-71
2022/11/03 10:40:52;;;;;;;12.18;1.73;;;14.30;99.90;;;;;;5045020;28;25074;-72
2022/11/03 10:43:17;;;;;;;8.32;2.00;;;14.30;99.90;;;;;;5066805;28;25083;-72
2022/11/03 10:45:43;;;;;;;6.50;1.70;;;14.30;99.90;;;;;;5060619;28;25099;-71
2022/11/03 10:48:10;;;;;;;9.05;2.45;;;14.40;99.90;;;;;;5066914;28;25149;-73
2022/11/03 10:50:38;;;;;;;5.43;1.98;;;14.50;99.90;;;;;;5071725;28;25069;-71
2022/11/03 10:53:04;;;;;;;4.70;2.03;;;14.40;99.90;;;;;;5061559;28;25113;-72
2022/11/03 10:55:30;;;;;;;4.57;1.42;;;14.60;99.90;;;;;;5076175;28;25295;-71
2022/11/03 10:57:57;;;;;;;6.57;1.77;;;14.50;99.90;;;;;;5065422;28;25050;-71
2022/11/03 11:00:23;;;;;;;6.00;1.98;;;14.50;99.90;;;;;;5072042;28;25072;-72
2022/11/03 11:02:55;;;;;;;9.25;1.63;;;14.50;99.90;;;;;;5048503;28;25128;-73
2022/11/03 11:05:22;;;;;;;8.43;2.13;;;14.50;99.90;;;;;;5062116;28;25077;-74
2022/11/03 11:07:50;;;;;;;6.18;1.40;;;14.50;99.90;;;;;;5073286;28;25075;-71
2022/11/03 11:10:28;;;;;;;7.80;1.90;;;14.60;99.90;;;;;;5042487;28;25054;-70
2022/11/03 11:13:05;;;;;;;4.90;1.42;;;14.70;99.90;;;;;;5060163;28;25066;-72
2022/11/03 11:15:46;;;;;;;10.43;1.40;;;14.80;99.90;;;;;;5070501;28;25089;-72
2022/11/03 11:18:31;;;;;;;11.02;2.58;;;14.90;99.90;;;;;;5071922;28;25052;-71
2022/11/03 11:21:20;;;;;;;4.30;1.73;;;14.80;99.90;;;;;;5063800;28;25169;-71
2022/11/03 11:23:48;;;;;;;1.70;1.20;;;14.80;99.90;;;;;;5072329;28;25153;-72
2022/11/03 11:26:33;;;;;;;5.32;1.45;;;14.70;99.90;;;;;;5073616;28;25072;-72
2022/11/03 11:29:22;;;;;;;4.93;1.33;;;14.80;99.90;;;;;;5045763;28;25074;-75
2022/11/03 11:31:47;;;;;;;6.80;1.98;;;14.80;99.90;;;;;;5047377;28;25076;-71
2022/11/03 11:34:17;;;;;;;9.63;2.13;;;14.80;99.90;;;;;;5065040;28;25057;-72
2022/11/03 11:36:42;;;;;;;10.93;1.58;;;14.90;99.90;;;;;;5065991;28;25067;-72
2022/11/03 11:39:32;;;;;;;3.83;1.73;;;14.90;99.90;;;;;;5067844;28;25067;-71
2022/11/03 11:42:16;;;;;;;6.20;1.52;;;15.10;99.90;;;;;;5061049;28;25167;-74
2022/11/03 11:44:41;;;;;;;7.47;1.58;;;15.30;99.90;;;;;;5063416;28;25074;-73
2022/11/03 11:47:31;;;;;;;8.63;1.75;;;15.40;99.90;;;;;;5065973;28;25056;-73
2022/11/03 11:50:05;;;;;;;3.15;1.30;;;15.40;99.90;;;;;;5071228;28;25117;-75
2022/11/03 11:52:49;;;;;;;6.30;1.48;;;15.30;99.90;;;;;;5069869;28;25052;-73
2022/11/03 11:55:19;;;;;;;14.40;1.83;;;15.20;99.90;;;;;;5064294;28;25115;-73
2022/11/03 11:57:46;;;;;;;6.72;1.42;;;15.20;99.90;;;;;;5067399;28;25085;-74
2022/11/03 12:00:21;;;;;;;4.53;1.48;;;15.30;99.90;;;;;;5075856;28;25059;-73
2022/11/03 12:02:47;;;;;;;3.47;1.40;;;15.30;99.90;;;;;;5059404;28;25056;-76
2022/11/03 12:05:26;;;;;;;3.75;1.45;;;15.20;99.90;;;;;;5065487;28;25062;-74
2022/11/03 12:07:52;;;;;;;8.75;1.38;;;15.20;99.90;;;;;;5045563;28;25066;-73
2022/11/03 12:10:27;;;;;;;5.18;1.98;;;15.30;99.90;;;;;;5048715;28;25505;-75
2022/11/03 12:12:57;;;;;;;6.30;1.58;;;15.10;99.90;;;;;;5078028;28;25052;-72
2022/11/03 12:15:55;;;;;;;8.43;1.70;;;15.10;99.90;;;;;;5058050;28;25067;-73
2022/11/03 12:18:54;;;;;;;8.38;1.70;;;15.20;99.90;;;;;;5065001;28;25047;-75
2022/11/03 12:21:52;;;;;;;6.18;1.85;;;15.60;99.90;;;;;;5022697;28;25073;-74
2022/11/03 12:24:35;;;;;;;6.47;1.42;;;15.90;99.90;;;;;;5011840;28;25073;-75
2022/11/03 12:27:01;;;;;;;;;;;15.80;99.90;;;;;;5065623;28;25065;-76
2022/11/03 12:29:27;;;;;;;5.68;1.45;;;15.80;99.90;;;;;;5049526;28;24104;-74
2022/11/03 12:31:53;;;;;;;9.05;1.63;;;15.80;99.90;;;;;;5050936;28;25066;-74
2022/11/03 12:34:18;;;;;;;6.22;1.75;;;15.90;99.90;;;;;;5071975;28;25067;-74
2022/11/03 12:36:44;;;;;;;3.70;1.25;;;16.20;99.90;;;;;;5081133;28;25093;-74
2022/11/03 12:39:11;;;;;;;2.28;1.10;;;16.40;99.90;;;;;;5073649;28;25061;-74
2022/11/03 12:41:37;;;;;;;8.40;2.20;;;16.50;99.90;;;;;;5077863;28;25067;-73
2022/11/03 12:44:03;;;;;;;4.50;1.20;;;16.50;99.90;;;;;;5060409;28;25065;-75
2022/11/03 12:46:28;;;;;;;8.10;1.75;;;16.50;99.90;;;;;;5051419;28;25123;-73
2022/11/03 12:48:54;;;;;;;7.40;1.40;;;16.70;99.90;;;;;;5067542;28;25068;-75
2022/11/03 12:51:23;;;;;;;2.45;1.42;;;16.50;99.90;;;;;;5067918;28;25153;-74
2022/11/03 12:53:49;;;;;;;4.70;1.15;;;16.30;99.90;;;;;;5060287;28;25104;-74
2022/11/03 12:56:16;;;;;;;4.03;1.23;;;16.20;99.90;;;;;;5067461;28;25123;-75
2022/11/03 12:58:42;;;;;;;7.32;1.80;;;16.00;99.90;;;;;;5049292;28;25101;-75
2022/11/03 13:01:08;;;;;;;3.05;1.52;;;15.90;99.90;;;;;;5049500;28;25167;-74
2022/11/03 13:03:34;;;;;;;5.03;1.30;;;15.90;99.90;;;;;;5067164;28;25057;-73
2022/11/03 13:06:03;;;;;;;8.75;1.88;;;16.00;99.90;;;;;;5069995;28;25092;-74
2022/11/03 13:08:32;;;;;;;6.53;1.42;;;15.90;99.90;;;;;;5063119;28;25193;-75
2022/11/03 13:10:58;;;;;;;4.45;1.77;;;16.00;99.90;;;;;;5075475;28;25071;-73
2022/11/03 13:13:24;;;;;;;5.55;1.40;;;15.90;99.90;;;;;;5078013;28;25073;-72
2022/11/03 13:15:51;;;;;;;3.35;1.65;;;16.00;99.90;;;;;;5070020;28;25066;-79
2022/11/03 13:18:18;;;;;;;2.53;1.20;;;16.00;99.90;;;;;;5085908;28;25085;-82